Time;durP1;ratioP1;P1;durP2;ratioP2;P2;SDS_P1;SDS_P2;PMS_P1;PMS_P2;Temp;Humidity;BMP_temperature;BMP_pressure;BME280_temperature;BME280_humidity;BME280_pressure;Samples;Min_cycle;Max_cycle;Signal;HPM_P1;HPM_P2
2023/07/13 00:00:34;;;;;;;11.23;6.00;;;;;;;;;;5052209;28;20035;-78
2023/07/13 00:03:00;;;;;;;13.10;6.28;;;;;;;;;;5052489;28;20460;-80
2023/07/13 00:05:27;;;;;;;12.40;6.25;;;;;;;;;;5050876;28;20029;-79
2023/07/13 00:07:54;;;;;;;11.38;6.00;;;;;;;;;;5051335;28;20041;-79
2023/07/13 00:10:20;;;;;;;12.13;5.75;;;;;;;;;;5052952;28;20027;-79
2023/07/13 00:12:46;;;;;;;12.50;5.82;;;;;;;;;;5052517;28;20020;-79
2023/07/13 00:15:16;;;;;;;11.60;5.95;;;;;;;;;;5051398;28;20483;-79
2023/07/13 00:17:44;;;;;;;14.32;5.82;;;;;;;;;;5052671;28;20024;-79
2023/07/13 00:20:10;;;;;;;11.27;5.97;;;;;;;;;;5052350;28;20025;-80
2023/07/13 00:22:37;;;;;;;11.82;6.30;;;;;;;;;;5047424;28;20104;-79
2023/07/13 00:25:03;;;;;;;12.73;6.82;;;;;;;;;;5052577;28;20021;-79
2023/07/13 00:27:31;;;;;;;11.05;5.75;;;;;;;;;;5052417;28;20035;-78
2023/07/13 00:29:57;;;;;;;12.80;5.72;;;;;;;;;;5051324;28;20032;-78
2023/07/13 00:32:27;;;;;;;12.77;6.43;;;;;;;;;;5052477;28;20013;-79
2023/07/13 00:34:53;;;;;;;15.35;6.30;;;;;;;;;;5053428;28;20468;-79
2023/07/13 00:37:19;;;;;;;11.48;5.72;;;;;;;;;;5054862;28;20470;-78
2023/07/13 00:39:46;;;;;;;12.38;6.32;;;;;;;;;;5054752;28;20048;-78
2023/07/13 00:42:12;;;;;;;19.13;6.40;;;;;;;;;;5055723;28;20037;-79
2023/07/13 00:44:39;;;;;;;19.05;6.65;;;;;;;;;;5056117;28;20455;-78
2023/07/13 00:47:06;;;;;;;18.95;7.45;;;;;;;;;;5054231;28;20029;-79
2023/07/13 00:49:34;;;;;;;19.00;7.22;;;;;;;;;;5054916;28;20077;-79
2023/07/13 00:52:02;;;;;;;20.30;6.85;;;;;;;;;;5055800;28;20029;-79
2023/07/13 00:54:31;;;;;;;19.38;7.13;;;;;;;;;;5055867;28;20036;-79
2023/07/13 00:56:59;;;;;;;28.73;7.55;;;;;;;;;;5055908;28;20017;-79
2023/07/13 00:59:26;;;;;;;28.95;7.95;;;;;;;;;;5054645;28;20025;-78
2023/07/13 01:01:53;;;;;;;30.08;7.63;;;;;;;;;;5055414;28;20078;-80
2023/07/13 01:04:19;;;;;;;32.05;7.88;;;;;;;;;;5055595;28;20082;-79
2023/07/13 01:06:46;;;;;;;25.33;7.95;;;;;;;;;;5055880;28;20037;-80
2023/07/13 01:09:13;;;;;;;14.90;6.97;;;;;;;;;;5055589;28;20486;-78
2023/07/13 01:11:39;;;;;;;21.08;8.02;;;;;;;;;;5054436;28;20025;-79
2023/07/13 01:14:06;;;;;;;13.55;7.03;;;;;;;;;;5055481;28;20039;-78
2023/07/13 01:16:32;;;;;;;15.98;6.20;;;;;;;;;;5055177;28;20025;-79
2023/07/13 01:19:01;;;;;;;17.30;7.30;;;;;;;;;;5053865;28;20045;-79
2023/07/13 01:21:27;;;;;;;14.43;7.07;;;;;;;;;;5052638;28;20024;-79
2023/07/13 01:23:53;;;;;;;20.52;7.40;;;;;;;;;;5054091;28;20481;-79
2023/07/13 01:26:20;;;;;;;12.15;7.30;;;;;;;;;;5054318;28;20382;-79
2023/07/13 01:28:46;;;;;;;11.15;7.68;;;;;;;;;;5054790;28;21544;-78
2023/07/13 01:31:12;;;;;;;13.52;7.13;;;;;;;;;;5054962;28;20033;-78
2023/07/13 01:33:40;;;;;;;12.57;7.38;;;;;;;;;;5055038;28;20017;-79
2023/07/13 01:36:07;;;;;;;17.02;7.10;;;;;;;;;;5054664;28;20078;-79
2023/07/13 01:38:33;;;;;;;16.25;7.35;;;;;;;;;;5054172;28;20016;-78
2023/07/13 01:40:59;;;;;;;14.93;7.30;;;;;;;;;;5053836;28;20106;-78
2023/07/13 01:43:26;;;;;;;13.48;6.80;;;;;;;;;;5055054;28;20025;-79
2023/07/13 01:45:52;;;;;;;10.52;6.00;;;;;;;;;;5052785;28;20021;-78
2023/07/13 01:48:19;;;;;;;16.20;6.53;;;;;;;;;;5055250;28;20070;-78
2023/07/13 01:50:46;;;;;;;12.27;6.43;;;;;;;;;;5047885;28;20541;-79
2023/07/13 01:53:12;;;;;;;12.43;6.78;;;;;;;;;;5055363;28;20027;-79
2023/07/13 01:55:38;;;;;;;16.20;6.57;;;;;;;;;;5055407;28;20009;-80
2023/07/13 01:58:04;;;;;;;11.40;6.68;;;;;;;;;;5055325;28;20013;-78
2023/07/13 02:00:31;;;;;;;15.23;6.80;;;;;;;;;;5055049;28;20067;-78
2023/07/13 02:02:57;;;;;;;18.88;7.13;;;;;;;;;;5054104;28;20029;-79
2023/07/13 02:05:23;;;;;;;11.75;6.18;;;;;;;;;;5053402;28;20031;-78
2023/07/13 02:07:49;;;;;;;12.55;6.55;;;;;;;;;;5053770;28;20020;-79
2023/07/13 02:10:16;;;;;;;16.15;6.97;;;;;;;;;;5055185;28;20028;-79
2023/07/13 02:12:43;;;;;;;10.20;6.20;;;;;;;;;;5055006;28;20021;-78
2023/07/13 02:15:09;;;;;;;13.70;7.45;;;;;;;;;;5054639;28;20016;-81
2023/07/13 02:17:36;;;;;;;10.10;5.93;;;;;;;;;;5053631;28;20104;-79
2023/07/13 02:20:03;;;;;;;16.67;6.78;;;;;;;;;;5051702;28;20024;-79
2023/07/13 02:22:29;;;;;;;11.25;6.40;;;;;;;;;;5053784;28;20039;-78
2023/07/13 02:24:55;;;;;;;17.17;6.63;;;;;;;;;;5052668;28;20108;-79
2023/07/13 02:27:21;;;;;;;18.33;8.00;;;;;;;;;;5054249;28;20436;-78
2023/07/13 02:29:47;;;;;;;16.17;6.50;;;;;;;;;;5054294;28;20520;-79
2023/07/13 02:32:14;;;;;;;15.77;7.10;;;;;;;;;;5054494;28;20032;-80
2023/07/13 02:34:42;;;;;;;11.65;6.75;;;;;;;;;;5054551;28;20044;-78
2023/07/13 02:37:08;;;;;;;14.30;6.57;;;;;;;;;;5053944;28;20460;-78
2023/07/13 02:39:34;;;;;;;15.23;6.78;;;;;;;;;;5052640;28;20349;-79
2023/07/13 02:42:00;;;;;;;16.75;9.60;;;;;;;;;;5052467;28;20440;-79
2023/07/13 02:44:27;;;;;;;13.18;7.53;;;;;;;;;;5052514;28;20064;-79
2023/07/13 02:46:53;;;;;;;11.35;6.32;;;;;;;;;;5053674;28;20112;-78
2023/07/13 02:49:19;;;;;;;10.20;6.80;;;;;;;;;;5053855;28;20063;-79
2023/07/13 02:51:45;;;;;;;15.50;6.82;;;;;;;;;;5053538;28;20478;-78
2023/07/13 02:54:13;;;;;;;10.80;6.13;;;;;;;;;;5054153;28;20477;-78
2023/07/13 02:56:39;;;;;;;14.35;5.80;;;;;;;;;;5034992;28;20460;-78
2023/07/13 02:59:05;;;;;;;11.75;6.22;;;;;;;;;;5052050;28;20078;-79
2023/07/13 03:01:34;;;;;;;13.32;6.00;;;;;;;;;;5053938;28;20024;-78
2023/07/13 03:04:00;;;;;;;12.30;6.35;;;;;;;;;;5054318;28;20021;-79
2023/07/13 03:06:30;;;;;;;14.48;6.60;;;;;;;;;;5052824;28;20024;-79
2023/07/13 03:08:56;;;;;;;10.85;6.22;;;;;;;;;;5052557;28;20352;-78
2023/07/13 03:11:22;;;;;;;12.77;6.10;;;;;;;;;;5054023;28;20017;-79
2023/07/13 03:13:48;;;;;;;15.90;6.40;;;;;;;;;;5053788;28;20017;-79
2023/07/13 03:16:15;;;;;;;13.98;6.72;;;;;;;;;;5053927;28;20016;-78
2023/07/13 03:18:41;;;;;;;18.50;6.85;;;;;;;;;;5052330;28;20045;-78
2023/07/13 03:21:08;;;;;;;15.80;7.15;;;;;;;;;;5052355;28;20086;-78
2023/07/13 03:23:34;;;;;;;18.10;6.93;;;;;;;;;;5051953;28;20025;-78
2023/07/13 03:26:08;;;;;;;12.85;6.55;;;;;;;;;;5053011;28;20013;-79
2023/07/13 03:28:34;;;;;;;13.50;6.32;;;;;;;;;;5053215;28;20464;-79
2023/07/13 03:31:01;;;;;;;14.52;6.35;;;;;;;;;;5053135;28;20094;-78
2023/07/13 03:33:27;;;;;;;17.85;6.60;;;;;;;;;;5052995;28;20017;-79
2023/07/13 03:35:53;;;;;;;10.73;6.22;;;;;;;;;;5051818;28;20355;-79
2023/07/13 03:38:19;;;;;;;14.38;6.60;;;;;;;;;;5052969;28;20473;-78
2023/07/13 03:40:46;;;;;;;12.50;7.25;;;;;;;;;;5052222;28;20017;-77
2023/07/13 03:43:12;;;;;;;18.73;7.93;;;;;;;;;;5052717;28;20025;-79
2023/07/13 03:45:38;;;;;;;15.35;7.20;;;;;;;;;;5052950;28;20023;-78
2023/07/13 03:48:05;;;;;;;12.10;6.57;;;;;;;;;;5052924;28;20025;-79
2023/07/13 03:50:31;;;;;;;10.60;6.80;;;;;;;;;;5052120;28;20025;-78
2023/07/13 03:52:58;;;;;;;18.05;7.22;;;;;;;;;;5053002;28;20021;-78
2023/07/13 03:55:24;;;;;;;16.60;7.30;;;;;;;;;;5052750;28;20025;-78
2023/07/13 03:57:58;;;;;;;13.85;7.07;;;;;;;;;;5052602;28;20348;-79
2023/07/13 04:00:24;;;;;;;14.43;7.20;;;;;;;;;;5052448;28;20380;-78
2023/07/13 04:02:50;;;;;;;11.02;6.80;;;;;;;;;;5051684;28;20021;-79
2023/07/13 04:05:17;;;;;;;16.55;6.80;;;;;;;;;;5052821;28;20021;-79
2023/07/13 04:07:43;;;;;;;18.90;8.10;;;;;;;;;;5051578;28;20067;-78
2023/07/13 04:10:10;;;;;;;16.77;7.72;;;;;;;;;;5055644;28;20016;-78
2023/07/13 04:12:36;;;;;;;11.85;6.90;;;;;;;;;;5056730;28;20020;-78
2023/07/13 04:15:02;;;;;;;13.52;7.57;;;;;;;;;;5056001;28;20020;-79
2023/07/13 04:17:28;;;;;;;16.67;6.80;;;;;;;;;;5054900;28;20070;-77
2023/07/13 04:19:54;;;;;;;12.50;7.32;;;;;;;;;;5056313;28;20028;-78
2023/07/13 04:22:21;;;;;;;18.67;7.00;;;;;;;;;;5056241;28;20120;-78
2023/07/13 04:24:47;;;;;;;16.95;7.47;;;;;;;;;;5055754;28;20032;-78
2023/07/13 04:27:13;;;;;;;17.35;7.22;;;;;;;;;;5057070;28;20021;-77
2023/07/13 04:29:39;;;;;;;15.45;7.18;;;;;;;;;;5056888;28;20023;-79
2023/07/13 04:32:05;;;;;;;18.38;7.88;;;;;;;;;;5056613;28;20039;-78
2023/07/13 04:34:31;;;;;;;13.82;6.75;;;;;;;;;;5057217;28;20024;-78
2023/07/13 04:36:57;;;;;;;13.50;6.43;;;;;;;;;;5057153;28;20020;-78
2023/07/13 04:39:24;;;;;;;19.23;6.85;;;;;;;;;;5055412;28;20451;-77
2023/07/13 04:41:50;;;;;;;15.15;7.25;;;;;;;;;;5056691;28;20036;-78
2023/07/13 04:44:16;;;;;;;12.20;6.70;;;;;;;;;;5056758;28;20025;-78
2023/07/13 04:46:43;;;;;;;13.80;7.28;;;;;;;;;;5056610;28;20027;-78
2023/07/13 04:49:09;;;;;;;19.65;8.52;;;;;;;;;;5055386;28;20513;-78
2023/07/13 04:51:35;;;;;;;21.77;7.43;;;;;;;;;;5056912;28;20456;-78
2023/07/13 04:54:01;;;;;;;15.55;6.90;;;;;;;;;;5056471;28;20067;-78
2023/07/13 04:56:28;;;;;;;15.05;7.03;;;;;;;;;;5055282;28;20093;-78
2023/07/13 04:58:54;;;;;;;17.13;7.20;;;;;;;;;;5055137;28;20056;-78
2023/07/13 05:01:20;;;;;;;16.73;7.05;;;;;;;;;;5055201;28;20020;-78
2023/07/13 05:03:46;;;;;;;14.07;7.20;;;;;;;;;;5056366;28;20075;-78
2023/07/13 05:06:13;;;;;;;11.60;6.30;;;;;;;;;;5056231;28;20020;-78
2023/07/13 05:08:39;;;;;;;18.88;7.20;;;;;;;;;;5056720;28;20036;-78
2023/07/13 05:11:07;;;;;;;13.82;6.70;;;;;;;;;;5055926;28;20021;-78
2023/07/13 05:13:33;;;;;;;26.80;7.88;;;;;;;;;;5056125;28;20020;-77
2023/07/13 05:16:01;;;;;;;17.80;7.25;;;;;;;;;;5056059;28;20024;-78
2023/07/13 05:18:27;;;;;;;18.05;7.18;;;;;;;;;;5054723;28;20044;-78
2023/07/13 05:21:01;;;;;;;17.25;7.78;;;;;;;;;;5053138;28;20033;-79
2023/07/13 05:23:27;;;;;;;12.85;7.20;;;;;;;;;;5056150;28;20093;-78
2023/07/13 05:25:53;;;;;;;17.40;7.65;;;;;;;;;;5055907;28;20017;-79
2023/07/13 05:28:20;;;;;;;20.02;7.40;;;;;;;;;;5056059;28;20025;-78
2023/07/13 05:30:50;;;;;;;16.48;7.03;;;;;;;;;;5056103;28;20017;-79
2023/07/13 05:33:16;;;;;;;15.15;7.88;;;;;;;;;;5054757;28;20119;-78
2023/07/13 05:35:42;;;;;;;17.15;7.90;;;;;;;;;;5055880;28;20024;-79
2023/07/13 05:38:09;;;;;;;16.38;6.60;;;;;;;;;;5055574;28;20021;-79
2023/07/13 05:40:35;;;;;;;15.60;7.22;;;;;;;;;;5054600;28;20422;-78
2023/07/13 05:43:01;;;;;;;15.25;6.50;;;;;;;;;;5055623;28;20024;-78
2023/07/13 05:45:27;;;;;;;17.25;6.95;;;;;;;;;;5055608;28;20090;-78
2023/07/13 05:47:53;;;;;;;16.67;7.75;;;;;;;;;;5055319;28;20024;-78
2023/07/13 05:50:19;;;;;;;14.90;7.28;;;;;;;;;;5054430;28;20031;-79
2023/07/13 05:52:45;;;;;;;18.48;8.38;;;;;;;;;;5054222;28;20021;-78
2023/07/13 05:55:11;;;;;;;22.52;7.72;;;;;;;;;;5055614;28;20060;-78
2023/07/13 05:57:38;;;;;;;24.58;8.40;;;;;;;;;;5055535;28;20097;-78
2023/07/13 06:00:04;;;;;;;14.25;7.43;;;;;;;;;;5053925;28;20020;-78
2023/07/13 06:02:30;;;;;;;19.02;6.90;;;;;;;;;;5055183;28;20031;-78
2023/07/13 06:04:56;;;;;;;21.70;7.75;;;;;;;;;;5053903;28;20112;-78
2023/07/13 06:07:22;;;;;;;16.17;5.47;;;;;;;;;;5055131;28;20039;-78
2023/07/13 06:09:48;;;;;;;17.67;6.68;;;;;;;;;;5055279;28;20333;-78
2023/07/13 06:12:14;;;;;;;12.65;6.60;;;;;;;;;;5053762;28;20029;-78
2023/07/13 06:14:40;;;;;;;14.23;6.30;;;;;;;;;;5054770;28;20078;-79
2023/07/13 06:17:07;;;;;;;15.80;5.65;;;;;;;;;;5054744;28;20029;-78
2023/07/13 06:19:34;;;;;;;18.02;5.78;;;;;;;;;;5055021;28;20049;-77
2023/07/13 06:22:00;;;;;;;15.00;6.35;;;;;;;;;;5054618;28;20036;-78
2023/07/13 06:24:27;;;;;;;21.13;6.20;;;;;;;;;;5054653;28;20017;-78
2023/07/13 06:26:53;;;;;;;15.70;5.90;;;;;;;;;;5054849;28;20027;-78
2023/07/13 06:29:19;;;;;;;14.93;6.05;;;;;;;;;;5055154;28;20060;-78
2023/07/13 06:31:45;;;;;;;17.60;6.68;;;;;;;;;;5054776;28;20039;-79
2023/07/13 06:34:11;;;;;;;20.23;5.63;;;;;;;;;;5053342;28;20104;-78
2023/07/13 06:36:38;;;;;;;15.27;6.13;;;;;;;;;;5054736;28;20066;-78
2023/07/13 06:39:04;;;;;;;17.65;6.15;;;;;;;;;;5053217;28;20135;-78
2023/07/13 06:41:31;;;;;;;21.23;6.25;;;;;;;;;;5053179;28;20422;-78
2023/07/13 06:43:57;;;;;;;24.42;7.80;;;;;;;;;;5054321;28;20024;-79
2023/07/13 06:46:23;;;;;;;14.95;6.03;;;;;;;;;;5053139;28;20017;-78
2023/07/13 06:48:49;;;;;;;16.20;7.50;;;;;;;;;;5053087;28;20112;-79
2023/07/13 06:51:16;;;;;;;23.92;7.80;;;;;;;;;;5053982;28;20021;-80
2023/07/13 06:53:43;;;;;;;17.73;7.03;;;;;;;;;;5054466;28;20092;-78
2023/07/13 06:56:10;;;;;;;15.30;5.85;;;;;;;;;;5052812;28;20028;-79
2023/07/13 06:58:36;;;;;;;18.55;6.22;;;;;;;;;;5054181;28;20021;-78
2023/07/13 07:01:03;;;;;;;21.65;6.57;;;;;;;;;;5054095;28;20032;-78
2023/07/13 07:03:29;;;;;;;11.75;6.22;;;;;;;;;;5053094;28;20017;-79
2023/07/13 07:06:00;;;;;;;14.95;6.68;;;;;;;;;;5053604;28;20027;-79
2023/07/13 07:08:26;;;;;;;;;;;;;;;;;;5054560;28;20021;-79
2023/07/13 07:10:53;;;;;;;16.40;6.82;;;;;;;;;;5052861;28;19912;-79
2023/07/13 07:13:20;;;;;;;15.93;6.18;;;;;;;;;;5054003;28;20013;-79
2023/07/13 07:15:46;;;;;;;13.13;6.78;;;;;;;;;;5053877;28;20416;-80
2023/07/13 07:18:12;;;;;;;22.27;7.13;;;;;;;;;;5053452;28;20490;-79
2023/07/13 07:20:38;;;;;;;15.13;5.65;;;;;;;;;;5053682;28;20017;-81
2023/07/13 07:23:05;;;;;;;12.48;5.22;;;;;;;;;;5052621;28;20109;-80
2023/07/13 07:25:32;;;;;;;14.73;6.38;;;;;;;;;;5052550;28;20035;-80
2023/07/13 07:27:59;;;;;;;16.17;5.80;;;;;;;;;;5052348;28;20108;-80
2023/07/13 07:30:25;;;;;;;12.00;5.20;;;;;;;;;;5053706;28;20363;-80
2023/07/13 07:32:51;;;;;;;12.48;4.95;;;;;;;;;;5053634;28;20025;-79
2023/07/13 07:35:17;;;;;;;11.65;5.65;;;;;;;;;;5053513;28;20100;-80
2023/07/13 07:37:43;;;;;;;10.23;5.22;;;;;;;;;;5052431;28;20028;-80
2023/07/13 07:40:09;;;;;;;9.80;5.03;;;;;;;;;;5053148;28;20017;-80
2023/07/13 07:42:35;;;;;;;6.97;4.47;;;;;;;;;;5053318;28;20098;-80
2023/07/13 07:45:02;;;;;;;16.15;5.75;;;;;;;;;;5052917;28;20027;-81
2023/07/13 07:51:13;;;;;;;11.23;6.20;;;;;;;;;;5172875;27;20787;-78
2023/07/13 07:53:39;;;;;;;10.88;6.10;;;;;;;;;;5134437;27;20030;-79
2023/07/13 07:56:06;;;;;;;11.65;6.40;;;;;;;;;;5134091;27;20330;-78
2023/07/13 07:58:32;;;;;;;15.27;6.07;;;;;;;;;;5152754;27;20026;-78
2023/07/13 08:01:05;;;;;;;15.88;5.88;;;;;;;;;;5133977;27;20075;-78
2023/07/13 08:03:31;;;;;;;12.95;5.88;;;;;;;;;;5152397;27;20023;-78
2023/07/13 08:05:57;;;;;;;10.07;5.88;;;;;;;;;;5152677;27;20097;-78
2023/07/13 08:08:23;;;;;;;13.73;5.85;;;;;;;;;;5133721;27;20026;-77
2023/07/13 08:10:49;;;;;;;11.63;6.68;;;;;;;;;;5152525;27;20051;-78
2023/07/13 08:13:15;;;;;;;13.38;6.00;;;;;;;;;;5152591;27;20054;-79
2023/07/13 08:15:41;;;;;;;11.95;6.05;;;;;;;;;;5133259;27;20019;-78
2023/07/13 08:18:08;;;;;;;14.23;6.13;;;;;;;;;;5151297;27;20018;-78
2023/07/13 08:20:37;;;;;;;16.67;6.50;;;;;;;;;;5148766;27;20018;-79
2023/07/13 08:23:03;;;;;;;10.57;6.47;;;;;;;;;;5141683;27;20019;-80
2023/07/13 08:25:29;;;;;;;12.68;5.30;;;;;;;;;;5133199;27;20019;-77
2023/07/13 08:27:55;;;;;;;11.48;5.78;;;;;;;;;;5150487;27;20067;-79
2023/07/13 08:30:21;;;;;;;11.52;5.30;;;;;;;;;;5132632;27;20027;-78
2023/07/13 08:32:47;;;;;;;15.50;5.72;;;;;;;;;;5151837;27;20140;-80
2023/07/13 08:35:13;;;;;;;20.35;6.75;;;;;;;;;;5133444;27;20152;-78
2023/07/13 08:37:40;;;;;;;13.13;5.80;;;;;;;;;;5133280;27;20399;-80
2023/07/13 08:40:06;;;;;;;16.63;5.40;;;;;;;;;;5133253;27;20030;-80
2023/07/13 08:42:46;;;;;;;19.55;5.22;;;;;;;;;;5151704;27;20019;-79
2023/07/13 08:45:21;;;;;;;15.70;5.20;;;;;;;;;;5133093;27;20019;-79
2023/07/13 08:47:54;;;;;;;16.83;5.53;;;;;;;;;;5133350;27;20019;-79
2023/07/13 08:50:22;;;;;;;17.75;4.80;;;;;;;;;;5150796;27;20051;-79
2023/07/13 08:52:48;;;;;;;12.32;4.85;;;;;;;;;;5132539;27;20389;-79
2023/07/13 08:55:16;;;;;;;14.20;4.85;;;;;;;;;;5132665;27;20076;-79
2023/07/13 08:57:43;;;;;;;15.18;5.55;;;;;;;;;;5132840;27;20019;-79
2023/07/13 09:00:12;;;;;;;13.10;4.93;;;;;;;;;;5132952;27;20027;-79
2023/07/13 09:02:47;;;;;;;13.80;5.07;;;;;;;;;;5118866;27;20026;-78
2023/07/13 09:05:16;;;;;;;13.77;4.95;;;;;;;;;;5137382;27;20027;-79
2023/07/13 09:07:49;;;;;;;16.52;4.95;;;;;;;;;;5119121;27;20338;-80
2023/07/13 09:10:25;;;;;;;13.68;4.70;;;;;;;;;;5137450;27;20023;-79
2023/07/13 09:12:52;;;;;;;13.30;4.43;;;;;;;;;;5134308;27;20019;-79
2023/07/13 09:15:31;;;;;;;11.38;4.65;;;;;;;;;;5118945;27;20456;-79
2023/07/13 09:17:59;;;;;;;14.70;5.00;;;;;;;;;;5137353;27;20446;-81
2023/07/13 09:20:26;;;;;;;11.90;4.22;;;;;;;;;;5119055;27;20029;-79
2023/07/13 09:22:53;;;;;;;11.93;4.22;;;;;;;;;;5118784;27;20490;-79
2023/07/13 09:25:25;;;;;;;12.50;4.10;;;;;;;;;;5104235;28;20028;-78
2023/07/13 09:27:54;;;;;;;8.77;4.18;;;;;;;;;;5129092;27;20015;-79
2023/07/13 09:30:44;;;;;;;9.35;4.78;;;;;;;;;;5118728;27;20031;-79
2023/07/13 09:33:10;;;;;;;17.83;5.00;;;;;;;;;;5123422;27;20031;-78
2023/07/13 09:35:36;;;;;;;11.52;4.50;;;;;;;;;;5118625;27;20023;-80
2023/07/13 09:38:23;;;;;;;15.85;5.05;;;;;;;;;;5118706;27;20019;-78
2023/07/13 09:41:08;;;;;;;11.85;4.45;;;;;;;;;;5136913;27;20077;-78
2023/07/13 09:43:35;;;;;;;10.60;4.45;;;;;;;;;;5136703;27;20015;-79
2023/07/13 09:46:01;;;;;;;10.75;4.80;;;;;;;;;;5118119;27;20433;-78
2023/07/13 09:48:34;;;;;;;9.90;5.47;;;;;;;;;;5137301;27;20048;-81
2023/07/13 09:51:07;;;;;;;7.93;4.03;;;;;;;;;;5117637;27;20047;-80
2023/07/13 09:53:33;;;;;;;11.07;4.40;;;;;;;;;;5136592;27;20024;-80
2023/07/13 09:55:59;;;;;;;13.55;5.18;;;;;;;;;;5118023;27;20548;-80
2023/07/13 09:58:27;;;;;;;8.10;4.10;;;;;;;;;;5118208;27;20023;-78
2023/07/13 10:01:01;;;;;;;13.52;4.53;;;;;;;;;;5136549;27;20023;-79
2023/07/13 10:03:29;;;;;;;13.63;4.45;;;;;;;;;;5118240;27;20023;-79
2023/07/13 10:05:59;;;;;;;12.48;4.25;;;;;;;;;;5117849;27;20462;-78
2023/07/13 10:08:33;;;;;;;13.70;4.50;;;;;;;;;;5116753;27;20073;-79
2023/07/13 10:11:13;;;;;;;14.02;4.43;;;;;;;;;;5117053;27;20026;-79
2023/07/13 10:13:44;;;;;;;10.43;5.13;;;;;;;;;;5116145;27;20027;-79
2023/07/13 10:16:10;;;;;;;;;;;;;;;;;;5135817;27;20475;-78
2023/07/13 10:18:55;;;;;;;7.75;4.53;;;;;;;;;;5135720;27;19903;-78
2023/07/13 10:21:22;;;;;;;11.40;4.28;;;;;;;;;;5116974;27;20061;-79
2023/07/13 10:23:57;;;;;;;8.77;4.95;;;;;;;;;;5134844;27;20022;-79
2023/07/13 10:26:34;;;;;;;11.45;4.28;;;;;;;;;;5135852;27;20602;-79
2023/07/13 10:29:03;;;;;;;12.00;4.75;;;;;;;;;;5116503;27;20051;-80
2023/07/13 10:31:31;;;;;;;25.67;4.47;;;;;;;;;;5135303;27;20046;-79
2023/07/13 10:33:57;;;;;;;8.65;4.55;;;;;;;;;;5135164;27;20135;-79
2023/07/13 10:36:40;;;;;;;13.50;4.65;;;;;;;;;;5135262;27;20018;-79
2023/07/13 10:39:07;;;;;;;12.40;5.07;;;;;;;;;;5096429;28;20020;-78
2023/07/13 10:41:36;;;;;;;11.38;4.40;;;;;;;;;;5116181;27;20042;-78
2023/07/13 10:44:03;;;;;;;17.25;5.18;;;;;;;;;;5116261;27;20054;-79
2023/07/13 10:46:30;;;;;;;10.70;4.40;;;;;;;;;;5135001;27;20027;-79
2023/07/13 10:48:59;;;;;;;9.10;4.35;;;;;;;;;;5134122;27;20030;-80
2023/07/13 10:51:25;;;;;;;19.17;4.20;;;;;;;;;;5135050;27;20015;-79
2023/07/13 10:54:10;;;;;;;10.07;4.93;;;;;;;;;;5134608;27;20016;-80
2023/07/13 10:56:36;;;;;;;9.43;4.32;;;;;;;;;;5134444;27;20034;-78
2023/07/13 10:59:11;;;;;;;9.30;4.88;;;;;;;;;;5134560;27;20019;-79
2023/07/13 11:01:47;;;;;;;11.73;4.47;;;;;;;;;;5135150;27;20011;-79
2023/07/13 11:04:14;;;;;;;18.08;4.20;;;;;;;;;;5134622;27;20519;-78
2023/07/13 11:06:44;;;;;;;9.65;4.85;;;;;;;;;;5116025;27;20015;-79
2023/07/13 11:09:36;;;;;;;9.75;4.43;;;;;;;;;;5134648;27;20114;-79
2023/07/13 11:12:03;;;;;;;13.75;4.47;;;;;;;;;;5134319;27;20072;-79
2023/07/13 11:14:32;;;;;;;8.60;4.32;;;;;;;;;;5116090;27;20080;-79
2023/07/13 11:16:59;;;;;;;9.77;4.00;;;;;;;;;;5134424;27;20026;-79
2023/07/13 11:19:27;;;;;;;11.30;4.43;;;;;;;;;;5134590;27;20019;-79
2023/07/13 11:22:05;;;;;;;11.23;4.65;;;;;;;;;;5120375;27;20402;-80
2023/07/13 11:24:50;;;;;;;11.68;5.03;;;;;;;;;;5133969;27;20015;-79
2023/07/13 11:27:28;;;;;;;11.63;4.82;;;;;;;;;;5134274;27;20458;-79
2023/07/13 11:30:07;;;;;;;13.77;4.90;;;;;;;;;;5134128;27;20022;-80
2023/07/13 11:32:33;;;;;;;14.55;4.43;;;;;;;;;;5115803;27;20030;-79
2023/07/13 11:34:59;;;;;;;12.20;5.07;;;;;;;;;;5134043;27;20026;-81
2023/07/13 11:37:28;;;;;;;9.45;4.50;;;;;;;;;;5116034;27;20019;-80
2023/07/13 11:39:54;;;;;;;7.70;4.65;;;;;;;;;;5115324;27;20031;-80
2023/07/13 11:42:21;;;;;;;12.98;4.45;;;;;;;;;;5133227;27;20037;-81
2023/07/13 11:44:49;;;;;;;9.23;4.03;;;;;;;;;;5133711;27;20043;-80
2023/07/13 11:47:20;;;;;;;12.10;4.38;;;;;;;;;;5133522;27;20027;-80
2023/07/13 11:49:49;;;;;;;10.70;4.18;;;;;;;;;;5110922;28;20035;-81
2023/07/13 11:52:16;;;;;;;10.90;4.65;;;;;;;;;;5111554;28;20047;-79
2023/07/13 11:54:56;;;;;;;10.57;4.70;;;;;;;;;;5112405;28;20458;-79
2023/07/13 11:57:28;;;;;;;9.27;3.85;;;;;;;;;;5107027;28;20450;-80
2023/07/13 11:59:55;;;;;;;8.88;4.35;;;;;;;;;;5112990;28;20073;-80
2023/07/13 12:02:32;;;;;;;9.32;4.13;;;;;;;;;;5113014;28;20023;-81
2023/07/13 12:04:59;;;;;;;13.70;4.40;;;;;;;;;;5111786;28;20037;-80
2023/07/13 12:07:28;;;;;;;11.60;5.10;;;;;;;;;;5105989;28;20016;-79
2023/07/13 12:09:54;;;;;;;12.38;4.70;;;;;;;;;;5108197;28;20034;-80
2023/07/13 12:12:22;;;;;;;10.43;4.70;;;;;;;;;;5112406;28;20012;-80
2023/07/13 12:14:51;;;;;;;11.90;4.60;;;;;;;;;;5113539;28;20057;-80
2023/07/13 12:17:22;;;;;;;15.02;4.63;;;;;;;;;;5112986;28;20414;-81
2023/07/13 12:19:52;;;;;;;11.25;4.82;;;;;;;;;;5112869;28;20023;-80
2023/07/13 12:22:19;;;;;;;11.73;5.28;;;;;;;;;;5113085;28;20061;-80
2023/07/13 12:24:46;;;;;;;15.55;4.53;;;;;;;;;;5112124;28;20031;-80
2023/07/13 12:27:20;;;;;;;16.02;4.60;;;;;;;;;;5111537;28;20027;-80
2023/07/13 12:29:57;;;;;;;22.08;4.65;;;;;;;;;;5113186;28;20032;-81
2023/07/13 12:32:25;;;;;;;14.20;4.25;;;;;;;;;;5113098;28;20020;-80
2023/07/13 12:35:14;;;;;;;10.57;4.95;;;;;;;;;;5110747;28;20094;-80
2023/07/13 12:37:42;;;;;;;12.35;4.57;;;;;;;;;;5094156;28;20114;-79
2023/07/13 12:40:19;;;;;;;11.98;4.47;;;;;;;;;;5117650;28;20031;-80
2023/07/13 12:42:48;;;;;;;12.73;4.30;;;;;;;;;;5117680;28;20520;-80
2023/07/13 12:45:25;;;;;;;9.85;4.35;;;;;;;;;;5117716;28;20027;-80
2023/07/13 12:47:54;;;;;;;10.45;3.88;;;;;;;;;;5096433;28;20088;-81
2023/07/13 12:50:25;;;;;;;12.93;4.03;;;;;;;;;;5114235;28;20047;-81
2023/07/13 12:52:58;;;;;;;8.85;4.38;;;;;;;;;;5115925;28;20016;-81
2023/07/13 12:55:24;;;;;;;10.30;4.57;;;;;;;;;;5115841;28;20028;-80
2023/07/13 12:57:51;;;;;;;9.48;3.83;;;;;;;;;;5115923;28;20031;-80
2023/07/13 13:00:20;;;;;;;11.75;4.53;;;;;;;;;;5117257;28;20020;-80
2023/07/13 13:02:49;;;;;;;13.15;4.43;;;;;;;;;;5115439;28;20024;-81
2023/07/13 13:05:16;;;;;;;11.75;4.10;;;;;;;;;;5115690;28;20073;-80
2023/07/13 13:07:42;;;;;;;11.40;4.20;;;;;;;;;;5116849;28;20020;-81
2023/07/13 13:10:14;;;;;;;11.05;4.22;;;;;;;;;;5115544;28;20051;-81
2023/07/13 13:12:44;;;;;;;14.50;4.15;;;;;;;;;;5116802;28;20016;-81
2023/07/13 13:15:13;;;;;;;14.27;5.40;;;;;;;;;;5116990;28;20463;-82
2023/07/13 13:17:40;;;;;;;10.70;5.18;;;;;;;;;;5115493;28;20047;-81
2023/07/13 13:20:16;;;;;;;11.35;4.78;;;;;;;;;;5116783;28;20028;-81
2023/07/13 13:22:42;;;;;;;12.38;3.97;;;;;;;;;;5116567;28;20020;-81
2023/07/13 13:25:12;;;;;;;11.95;4.30;;;;;;;;;;5116196;28;20020;-80
2023/07/13 13:27:41;;;;;;;12.90;4.13;;;;;;;;;;5116738;28;20028;-81
2023/07/13 13:30:12;;;;;;;11.73;4.35;;;;;;;;;;5116472;28;20027;-81
2023/07/13 13:32:39;;;;;;;13.57;4.25;;;;;;;;;;5116871;28;20023;-80
2023/07/13 13:35:06;;;;;;;16.95;4.80;;;;;;;;;;5116425;28;20622;-82
2023/07/13 13:37:32;;;;;;;14.23;4.32;;;;;;;;;;5115021;28;20365;-80
2023/07/13 13:39:58;;;;;;;11.70;3.55;;;;;;;;;;5103850;28;20020;-79
2023/07/13 13:42:26;;;;;;;18.25;4.13;;;;;;;;;;5104898;28;20027;-81
2023/07/13 13:44:53;;;;;;;15.20;3.70;;;;;;;;;;5116127;28;20024;-81
2023/07/13 13:47:28;;;;;;;10.55;4.15;;;;;;;;;;5114949;28;20110;-81
2023/07/13 13:49:55;;;;;;;13.65;4.05;;;;;;;;;;5125744;27;20071;-81
2023/07/13 13:52:21;;;;;;;13.38;4.25;;;;;;;;;;5118389;27;20023;-81
2023/07/13 13:54:47;;;;;;;9.63;3.70;;;;;;;;;;5136310;27;20457;-80
2023/07/13 13:57:13;;;;;;;18.95;4.45;;;;;;;;;;5118376;27;20029;-81
2023/07/13 13:59:40;;;;;;;14.57;3.75;;;;;;;;;;5118187;27;20048;-81
2023/07/13 14:02:22;;;;;;;9.77;3.53;;;;;;;;;;5136430;27;20019;-80
2023/07/13 14:04:50;;;;;;;13.70;4.00;;;;;;;;;;5136180;27;20015;-80
2023/07/13 14:07:17;;;;;;;7.85;3.50;;;;;;;;;;5118065;27;20453;-79
2023/07/13 14:09:43;;;;;;;12.43;3.75;;;;;;;;;;5136236;27;20079;-79
2023/07/13 14:12:11;;;;;;;8.63;2.95;;;;;;;;;;5136276;27;20029;-80
2023/07/13 14:14:38;;;;;;;9.07;3.40;;;;;;;;;;5117917;27;20110;-79
2023/07/13 14:17:05;;;;;;;13.25;3.70;;;;;;;;;;5117802;27;20019;-80
2023/07/13 14:19:31;;;;;;;7.65;3.58;;;;;;;;;;5136198;27;20023;-80
2023/07/13 14:21:57;;;;;;;9.90;3.35;;;;;;;;;;5124205;27;20022;-80
2023/07/13 14:24:24;;;;;;;9.27;4.25;;;;;;;;;;5135948;27;20016;-79
2023/07/13 14:26:50;;;;;;;7.65;3.03;;;;;;;;;;5135681;27;20011;-81
2023/07/13 14:29:17;;;;;;;12.52;3.53;;;;;;;;;;5135776;27;20350;-80
2023/07/13 14:31:44;;;;;;;9.82;3.60;;;;;;;;;;5136165;27;20061;-80
2023/07/13 14:34:12;;;;;;;8.15;3.63;;;;;;;;;;5135989;27;20019;-81
2023/07/13 14:36:44;;;;;;;12.07;3.35;;;;;;;;;;5117304;27;20023;-81
2023/07/13 14:39:15;;;;;;;14.40;2.70;;;;;;;;;;5117747;27;20019;-80